HORACE LAKE: From 05/12/2020 16:00 to 07/11/2020 22:00

Date LAKE ELEVATION [FT] PRECIPITATION INCREMENT [IN] AIR TEMPERATURE [F] RELATIVE HUMIDITY [%] RELEASE [CFS]
07/11/2020 17:00 655.46 0.00 84.0 74.0 --
07/11/2020 16:00 655.46 0.00 81.9 80.0 --
07/11/2020 15:00 655.46 0.00 84.6 66.0 --
07/11/2020 14:00 655.48 0.00 83.7 63.0 --
07/11/2020 13:00 655.48 0.00 81.0 74.0 --
07/11/2020 12:00 655.46 0.00 75.4 100.0 --
07/11/2020 11:00 655.47 0.00 72.0 100.0 --
07/11/2020 10:00 655.46 0.00 71.5 100.0 --
07/11/2020 09:00 655.46 0.00 71.6 100.0 --
07/11/2020 08:00 655.46 0.00 71.6 100.0 --
07/11/2020 07:00 655.45 0.00 71.3 100.0 --
07/11/2020 06:00 655.47 0.00 71.4 100.0 --
07/11/2020 05:00 655.46 0.00 71.1 100.0 --
07/11/2020 04:00 655.45 0.00 71.4 100.0 --
07/11/2020 03:00 655.46 0.00 71.4 100.0 --
07/11/2020 02:00 655.44 0.00 71.0 100.0 --
07/11/2020 01:00 655.45 0.00 70.6 100.0 --
07/11/2020 00:00 655.43 0.00 70.5 100.0 --
07/10/2020 23:00 655.44 0.01 71.6 100.0 --
07/10/2020 22:00 655.44 0.00 72.2 100.0 --
07/10/2020 21:00 655.44 0.00 73.0 100.0 --
07/10/2020 20:00 655.44 0.00 76.1 84.0 --
07/10/2020 19:00 655.44 0.00 78.5 77.0 --
07/10/2020 18:00 655.43 0.00 80.5 67.0 --
07/10/2020 17:00 655.44 0.00 80.7 72.0 --
07/10/2020 16:00 655.44 0.00 83.3 62.0 --
07/10/2020 15:00 655.45 0.00 83.2 56.0 --
07/10/2020 14:00 655.44 0.00 82.7 58.0 --
07/10/2020 13:00 655.45 0.00 82.3 56.0 --
07/10/2020 12:00 655.44 0.00 82.4 63.0 --
07/10/2020 11:00 655.44 0.00 81.2 81.0 --
07/10/2020 10:00 655.44 0.00 77.6 93.0 --
07/10/2020 09:00 655.45 0.00 74.9 100.0 --
07/10/2020 08:00 655.44 0.00 71.0 100.0 --
07/10/2020 07:00 655.45 0.00 69.6 100.0 --
07/10/2020 06:00 655.44 0.00 70.6 100.0 --
07/10/2020 05:00 655.45 0.00 72.0 100.0 --
07/10/2020 04:00 655.45 0.00 73.1 100.0 --
07/10/2020 03:00 655.45 0.00 72.5 100.0 --
07/10/2020 02:00 655.45 0.00 74.9 100.0 --
07/10/2020 01:00 655.45 0.00 74.5 100.0 --
07/10/2020 00:00 655.45 0.00 74.3 100.0 --
07/09/2020 23:00 655.45 0.00 74.9 100.0 --
07/09/2020 22:00 655.45 0.00 77.7 96.0 --
07/09/2020 21:00 655.45 0.00 78.9 89.0 --
07/09/2020 20:00 655.45 0.00 81.9 78.0 --
07/09/2020 19:00 655.44 0.00 84.8 68.0 --
07/09/2020 18:00 655.45 0.00 82.4 77.0 --
07/09/2020 17:00 655.45 0.01 85.7 69.0 --
07/09/2020 16:00 655.45 0.00 86.7 50.0 --
07/09/2020 15:00 655.45 0.00 87.6 56.0 --
07/09/2020 14:00 655.46 0.00 86.1 59.0 --
07/09/2020 13:00 655.46 0.00 82.6 66.0 --
07/09/2020 12:00 655.46 0.00 83.2 72.0 --
07/09/2020 11:00 655.45 0.00 77.8 80.0 --
07/09/2020 10:00 655.46 0.00 74.7 90.0 --
07/09/2020 09:00 655.45 0.00 72.1 100.0 --
07/09/2020 08:00 655.45 0.00 71.3 100.0 --
07/09/2020 07:00 655.46 0.00 70.2 100.0 --
07/09/2020 06:00 655.46 0.00 69.8 100.0 --
07/09/2020 05:00 655.46 0.00 69.6 100.0 --
07/09/2020 04:00 655.45 0.00 68.9 100.0 --
07/09/2020 03:00 655.46 0.00 68.8 100.0 --
07/09/2020 02:00 655.46 0.00 69.6 100.0 --
07/09/2020 01:00 655.45 0.00 70.1 100.0 --
07/09/2020 00:00 655.46 0.00 69.6 100.0 --
07/08/2020 23:00 655.45 0.00 69.8 100.0 --
07/08/2020 22:00 655.46 0.00 72.2 91.0 --
07/08/2020 21:00 655.46 0.00 73.8 84.0 --
07/08/2020 20:00 655.45 0.00 74.0 80.0 --
07/08/2020 19:00 655.48 0.00 73.2 83.0 --
07/08/2020 18:00 655.47 0.00 76.9 91.0 --
07/08/2020 17:00 655.46 0.00 81.7 71.0 --
07/08/2020 16:00 655.47 0.00 82.8 64.0 --
07/08/2020 15:00 655.47 0.00 81.5 70.0 --
07/08/2020 14:00 655.47 0.00 79.9 71.0 --
07/08/2020 13:00 655.47 0.01 78.3 75.0 --
07/08/2020 12:00 655.47 0.00 76.8 78.0 --
07/08/2020 11:00 655.47 0.00 74.3 86.0 --
07/08/2020 10:00 655.47 0.00 72.0 93.0 --
07/08/2020 09:00 655.48 0.00 70.5 97.0 --
07/08/2020 08:00 655.48 0.00 69.0 100.0 --
07/08/2020 07:00 655.46 0.00 68.5 100.0 --
07/08/2020 06:00 655.48 0.00 68.8 100.0 --
07/08/2020 05:00 655.48 0.00 69.2 98.0 --
07/08/2020 04:00 655.48 0.00 69.4 95.0 --
07/08/2020 03:00 655.47 0.00 69.9 93.0 --
07/08/2020 02:00 655.47 0.00 70.6 86.0 --
07/08/2020 01:00 655.48 0.00 70.1 86.0 --
07/08/2020 00:00 655.48 0.00 69.1 88.0 --
07/07/2020 23:00 655.48 0.00 69.8 81.0 --
07/07/2020 22:00 655.46 0.00 71.9 74.0 --
07/07/2020 21:00 655.48 0.00 75.2 69.0 --
07/07/2020 20:00 655.47 0.00 77.7 66.0 --
07/07/2020 19:00 655.48 0.00 77.7 65.0 --
07/07/2020 18:00 655.47 0.00 78.5 60.0 --
07/07/2020 17:00 655.49 0.00 79.8 55.0 --
07/07/2020 16:00 655.48 0.00 79.6 54.0 --
07/07/2020 15:00 655.49 0.00 78.5 54.0 --
07/07/2020 14:00 655.48 0.00 77.2 56.0 --
07/07/2020 13:00 655.49 0.00 75.9 58.0 --
07/07/2020 12:00 655.49 0.00 74.0 66.0 --
07/07/2020 11:00 655.50 0.00 71.6 70.0 --
07/07/2020 10:00 655.49 0.00 68.4 87.0 --
07/07/2020 09:00 655.49 0.00 64.2 100.0 --
07/07/2020 08:00 655.49 0.00 61.3 100.0 --
07/07/2020 07:00 655.49 0.00 59.7 100.0 --
07/07/2020 06:00 655.49 0.00 59.6 100.0 --
07/07/2020 05:00 655.49 0.00 58.1 100.0 --
07/07/2020 04:00 655.49 0.00 58.9 100.0 --
07/07/2020 03:00 655.50 0.00 58.6 100.0 --
07/07/2020 02:00 655.49 0.00 58.8 100.0 --
07/07/2020 01:00 655.49 0.00 59.5 100.0 --
07/07/2020 00:00 655.49 0.00 61.2 100.0 --
07/06/2020 23:00 655.49 0.00 62.4 90.0 --
07/06/2020 22:00 655.49 0.00 65.1 80.0 --
07/06/2020 21:00 655.49 0.00 72.7 57.0 --
07/06/2020 20:00 655.50 0.00 75.7 54.0 --
07/06/2020 19:00 655.50 0.00 79.1 52.0 --
07/06/2020 18:00 655.51 0.00 80.6 45.0 --
07/06/2020 17:00 655.50 0.00 79.9 39.0 --
07/06/2020 16:00 655.51 0.00 77.4 56.0 --
07/06/2020 15:00 655.51 0.00 77.1 62.0 --
07/06/2020 14:00 655.50 0.00 76.0 58.0 --
07/06/2020 13:00 655.51 0.01 73.4 65.0 --
07/06/2020 12:00 655.51 0.00 73.0 78.0 --
07/06/2020 11:00 655.52 0.00 69.9 93.0 --
07/06/2020 10:00 655.52 0.00 68.7 100.0 --
07/06/2020 09:00 655.51 0.00 68.5 100.0 --
07/06/2020 08:00 655.51 0.00 64.7 100.0 --
07/06/2020 07:00 655.52 0.00 63.6 100.0 --
07/06/2020 06:00 655.52 0.00 62.4 100.0 --
07/06/2020 05:00 655.52 0.00 63.0 100.0 --
07/06/2020 04:00 655.52 0.00 62.8 100.0 --
07/06/2020 03:00 655.52 0.00 63.3 100.0 --
07/06/2020 02:00 655.52 0.00 64.7 100.0 --
07/06/2020 01:00 655.53 0.00 65.0 100.0 --
07/06/2020 00:00 655.53 0.00 66.2 100.0 --
07/05/2020 23:00 655.54 0.00 67.3 100.0 --
07/05/2020 22:00 655.51 0.00 72.2 95.0 --
07/05/2020 21:00 655.51 0.00 72.4 84.0 --
07/05/2020 20:00 655.52 0.00 74.5 76.0 --
07/05/2020 19:00 655.52 0.00 79.2 61.0 --
07/05/2020 18:00 655.51 0.01 82.0 55.0 --
07/05/2020 17:00 655.51 0.00 82.9 37.0 --
07/05/2020 16:00 655.51 0.00 82.6 36.0 --
07/05/2020 15:00 655.53 0.00 82.5 32.0 --
07/05/2020 14:00 655.52 0.00 82.5 37.0 --
07/05/2020 13:00 655.52 0.00 78.5 50.0 --
07/05/2020 12:00 655.52 0.00 74.8 71.0 --
07/05/2020 11:00 655.54 0.00 71.6 86.0 --
07/05/2020 10:00 655.52 0.00 67.5 95.0 --
07/05/2020 09:00 655.52 0.00 63.5 100.0 --
07/05/2020 08:00 655.53 0.00 62.3 100.0 --
07/05/2020 07:00 655.54 0.00 61.6 100.0 --
07/05/2020 06:00 655.53 0.00 61.4 100.0 --
07/05/2020 05:00 655.53 0.00 62.8 100.0 --
07/05/2020 04:00 655.54 0.00 63.0 100.0 --
07/05/2020 03:00 655.54 0.00 64.1 100.0 --
07/05/2020 02:00 655.55 0.00 64.4 100.0 --
07/05/2020 01:00 655.55 0.01 65.6 100.0 --
07/05/2020 00:00 655.54 0.04 65.4 100.0 --
07/04/2020 23:00 655.55 0.00 66.1 95.0 --
07/04/2020 22:00 655.55 0.00 68.5 88.0 --
07/04/2020 21:00 655.56 0.00 74.0 75.0 --
07/04/2020 20:00 655.55 0.00 74.7 66.0 --
07/04/2020 19:00 655.55 0.00 79.9 55.0 --
07/04/2020 18:00 655.56 0.00 84.5 32.0 --
07/04/2020 17:00 655.56 0.00 84.2 30.0 --
07/04/2020 16:00 655.57 0.00 81.9 59.0 --
07/04/2020 15:00 655.57 0.00 79.8 56.0 --
07/04/2020 14:00 655.57 0.00 79.0 55.0 --
07/04/2020 13:00 655.57 0.00 76.5 64.0 --
07/04/2020 12:00 655.58 0.01 72.7 70.0 --
07/04/2020 11:00 655.58 0.00 68.8 80.0 --
07/04/2020 10:00 655.58 0.00 66.3 90.0 --
07/04/2020 09:00 655.57 0.00 63.4 100.0 --
07/04/2020 08:00 655.59 0.00 62.2 100.0 --
07/04/2020 07:00 655.58 0.00 60.1 100.0 --
07/04/2020 06:00 655.59 0.00 59.5 100.0 --
07/04/2020 05:00 655.59 0.00 59.6 100.0 --
07/04/2020 04:00 655.59 0.00 60.8 100.0 --
07/04/2020 03:00 655.59 0.00 61.4 100.0 --
07/04/2020 02:00 655.59 0.00 60.7 100.0 --
07/04/2020 01:00 655.60 0.00 60.2 100.0 --
07/04/2020 00:00 655.61 0.00 62.5 100.0 --
07/03/2020 23:00 655.60 0.00 64.5 100.0 --
07/03/2020 22:00 655.60 0.00 65.0 98.0 --
07/03/2020 21:00 655.61 0.00 66.9 89.0 --
07/03/2020 20:00 655.61 0.00 67.8 86.0 --
07/03/2020 19:00 655.62 0.00 68.6 84.0 --
07/03/2020 18:00 655.63 0.00 68.8 86.0 --
07/03/2020 17:00 655.63 0.00 69.2 85.0 --
07/03/2020 16:00 655.63 0.00 67.6 92.0 --
07/03/2020 15:00 655.64 0.00 68.6 94.0 --
07/03/2020 14:00 655.63 0.00 67.9 100.0 --
07/03/2020 13:00 655.65 0.00 66.7 100.0 --
07/03/2020 12:00 655.63 0.00 68.6 100.0 --
07/03/2020 11:00 655.65 0.00 72.5 95.0 --
07/03/2020 10:00 655.65 0.01 72.7 93.0 --
07/03/2020 09:00 655.66 0.00 71.7 99.0 --
07/03/2020 08:00 655.66 0.00 70.4 100.0 --
07/03/2020 07:00 655.66 0.00 70.0 98.0 --
07/03/2020 06:00 655.67 0.00 71.4 92.0 --
07/03/2020 05:00 655.66 0.00 70.8 99.0 --
07/03/2020 04:00 655.67 0.00 70.4 95.0 --
07/03/2020 03:00 655.67 0.00 71.3 90.0 --
07/03/2020 02:00 655.68 0.00 72.3 87.0 --
07/03/2020 01:00 655.67 0.00 72.7 92.0 --
07/03/2020 00:00 655.68 0.00 73.3 88.0 --
07/02/2020 23:00 655.69 0.00 73.7 91.0 --
07/02/2020 22:00 655.69 0.00 74.4 86.0 --
07/02/2020 21:00 655.69 0.00 74.7 81.0 --
07/02/2020 20:00 655.72 0.01 77.6 65.0 --
07/02/2020 19:00 655.70 0.00 86.2 50.0 --
07/02/2020 18:00 655.71 0.01 87.3 47.0 --
07/02/2020 17:00 655.72 0.01 86.8 47.0 --
07/02/2020 16:00 655.72 0.00 85.6 50.0 --
07/02/2020 15:00 655.73 0.00 84.9 45.0 --
07/02/2020 14:00 655.73 0.00 82.8 49.0 --
07/02/2020 13:00 655.72 0.00 81.0 60.0 --
07/02/2020 12:00 655.74 0.00 77.2 75.0 --
07/02/2020 11:00 655.74 0.00 76.1 76.0 --
07/02/2020 10:00 655.74 0.01 71.4 99.0 --
07/02/2020 09:00 655.75 0.00 67.0 100.0 --
07/02/2020 08:00 655.75 0.00 62.4 100.0 --
07/02/2020 07:00 655.76 0.00 61.3 100.0 --
07/02/2020 06:00 655.76 0.00 61.1 100.0 --
07/02/2020 05:00 655.76 0.00 61.7 100.0 --
07/02/2020 04:00 655.76 0.00 61.9 100.0 --
07/02/2020 03:00 655.77 0.00 62.5 100.0 --
07/02/2020 02:00 655.78 0.00 62.9 100.0 --
07/02/2020 01:00 655.78 0.00 63.7 100.0 --
07/02/2020 00:00 655.78 0.00 64.7 100.0 --
07/01/2020 23:00 655.78 0.00 64.4 100.0 --
07/01/2020 22:00 655.80 0.00 64.9 100.0 --
07/01/2020 21:00 655.80 0.00 67.1 100.0 --
07/01/2020 20:00 655.80 0.00 70.5 96.0 --
07/01/2020 19:00 655.80 0.00 67.6 100.0 --
07/01/2020 18:00 655.82 0.01 64.7 100.0 --
07/01/2020 17:00 655.81 0.00 74.7 70.0 --
07/01/2020 16:00 655.81 0.00 75.9 60.0 --
07/01/2020 15:00 655.81 0.00 75.4 67.0 --
07/01/2020 14:00 655.82 0.00 73.5 75.0 --
07/01/2020 13:00 655.82 0.00 71.4 86.0 --
07/01/2020 12:00 655.81 0.00 69.2 100.0 --
07/01/2020 11:00 655.82 0.00 68.5 100.0 --
07/01/2020 10:00 655.82 0.00 66.4 100.0 --
07/01/2020 09:00 655.82 0.00 64.7 100.0 --
07/01/2020 08:00 655.82 0.00 63.8 100.0 --
07/01/2020 07:00 655.81 0.00 62.7 100.0 --
07/01/2020 06:00 655.81 0.00 62.9 100.0 --
07/01/2020 05:00 655.79 0.00 64.0 100.0 --
07/01/2020 04:00 655.78 0.00 64.2 100.0 --
07/01/2020 03:00 655.76 0.00 64.3 100.0 --
07/01/2020 02:00 655.74 0.00 64.4 100.0 --
07/01/2020 01:00 655.72 0.00 64.1 100.0 --
07/01/2020 00:00 655.70 0.00 64.6 100.0 --
06/30/2020 23:00 655.69 0.00 64.7 100.0 --
06/30/2020 22:00 655.65 0.00 64.7 100.0 --
06/30/2020 21:00 655.62 0.00 65.0 100.0 --
06/30/2020 20:00 655.56 0.00 66.1 100.0 --
06/30/2020 19:00 655.55 0.00 69.9 100.0 --
06/30/2020 18:00 655.56 0.00 68.1 100.0 --
06/30/2020 17:00 655.57 0.00 66.4 100.0 --
06/30/2020 16:00 655.56 0.00 67.5 100.0 --
06/30/2020 15:00 655.55 0.00 72.5 84.0 --
06/30/2020 14:00 655.55 0.00 69.7 100.0 --
06/30/2020 13:00 655.55 0.00 68.9 100.0 --
06/30/2020 12:00 655.53 0.00 66.9 100.0 --
06/30/2020 11:00 655.54 0.00 66.9 100.0 --
06/30/2020 10:00 655.53 0.00 64.8 100.0 --
06/30/2020 09:00 655.54 0.00 63.6 100.0 --
06/30/2020 08:00 655.54 0.00 63.0 100.0 --
06/30/2020 07:00 655.55 0.00 62.4 100.0 --
06/30/2020 06:00 655.54 0.00 62.0 100.0 --
06/30/2020 05:00 655.54 0.00 61.8 100.0 --
06/30/2020 04:00 655.55 0.00 61.8 100.0 --
06/30/2020 03:00 655.55 0.00 62.2 100.0 --
06/30/2020 02:00 655.55 0.00 61.6 100.0 --
06/30/2020 01:00 655.55 0.00 62.3 100.0 --
06/30/2020 00:00 655.55 0.00 62.3 100.0 --
06/29/2020 23:00 655.55 0.00 63.4 100.0 --
06/29/2020 22:00 655.54 0.00 64.1 100.0 --
06/29/2020 21:00 655.54 0.00 64.4 100.0 --
06/29/2020 20:00 655.54 0.00 64.4 100.0 --
06/29/2020 19:00 655.54 0.00 65.3 100.0 --
06/29/2020 18:00 655.53 0.00 68.7 90.0 --
06/29/2020 17:00 655.53 0.00 68.6 86.0 --
06/29/2020 16:00 655.54 0.00 70.1 84.0 --
06/29/2020 15:00 655.54 0.01 71.4 85.0 --
06/29/2020 14:00 655.55 0.00 68.7 100.0 --
06/29/2020 13:00 655.53 0.00 67.3 100.0 --
06/29/2020 12:00 655.50 0.00 69.7 96.0 --
06/29/2020 11:00 655.50 0.01 67.6 100.0 --
06/29/2020 10:00 655.50 0.00 67.0 100.0 --
06/29/2020 09:00 655.50 0.00 65.9 100.0 --
06/29/2020 08:00 655.49 0.01 64.7 100.0 --
06/29/2020 07:00 655.48 0.00 63.8 100.0 --
06/29/2020 06:00 655.48 0.01 63.6 100.0 --
06/29/2020 05:00 655.47 0.00 63.6 100.0 --
06/29/2020 04:00 655.48 0.00 64.0 100.0 --
06/29/2020 03:00 655.47 0.00 64.4 100.0 --
06/29/2020 02:00 655.45 0.00 65.7 100.0 --
06/29/2020 01:00 655.46 0.01 65.4 100.0 --
06/29/2020 00:00 655.47 0.01 65.8 100.0 --
06/28/2020 23:00 655.36 0.00 66.5 100.0 --
06/28/2020 22:00 655.33 0.01 69.0 99.0 --
06/28/2020 21:00 655.34 0.00 71.0 85.0 --
06/28/2020 20:00 655.33 0.00 75.0 79.0 --
06/28/2020 19:00 655.32 0.00 76.1 72.0 --
06/28/2020 18:00 655.32 0.00 78.7 61.0 --
06/28/2020 17:00 655.33 0.00 78.5 59.0 --
06/28/2020 16:00 655.32 0.00 77.9 62.0 --
06/28/2020 15:00 655.33 0.00 76.3 67.0 --
06/28/2020 14:00 655.34 0.00 75.4 70.0 --
06/28/2020 13:00 655.33 0.00 76.1 66.0 --
06/28/2020 12:00 655.32 0.00 75.5 68.0 --
06/28/2020 11:00 655.33 0.00 73.2 73.0 --
06/28/2020 10:00 655.33 0.00 70.3 82.0 --
06/28/2020 09:00 655.33 0.00 66.3 96.0 --
06/28/2020 08:00 655.32 0.00 62.3 100.0 --
06/28/2020 07:00 655.33 0.00 60.8 100.0 --
06/28/2020 06:00 655.32 0.00 61.3 100.0 --
06/28/2020 05:00 655.33 0.00 60.3 100.0 --
06/28/2020 04:00 655.33 0.00 62.7 100.0 --
06/28/2020 03:00 655.33 0.00 62.5 100.0 --
06/28/2020 02:00 655.32 0.00 63.8 100.0 --
06/28/2020 01:00 655.32 0.00 64.0 97.0 --
06/28/2020 00:00 655.33 0.00 66.0 90.0 --
06/27/2020 23:00 655.32 0.00 66.9 88.0 --
06/27/2020 22:00 655.33 0.00 67.3 85.0 --
06/27/2020 21:00 655.33 0.00 68.7 78.0 --
06/27/2020 20:00 655.32 0.00 69.9 75.0 --
06/27/2020 19:00 655.32 0.00 71.5 64.0 --
06/27/2020 18:00 655.33 0.00 71.9 66.0 --
06/27/2020 17:00 655.33 0.00 73.2 59.0 --
06/27/2020 16:00 655.34 0.00 76.6 53.0 --
06/27/2020 15:00 655.33 0.00 75.2 63.0 --
06/27/2020 14:00 655.33 0.00 72.9 72.0 --
06/27/2020 13:00 655.32 0.00 74.8 68.0 --
06/27/2020 12:00 655.33 0.00 74.6 58.0 --
06/27/2020 11:00 655.33 0.00 73.8 58.0 --
06/27/2020 10:00 655.34 0.00 70.8 63.0 --
06/27/2020 09:00 655.34 0.00 65.2 77.0 --
06/27/2020 08:00 655.34 0.00 59.9 94.0 --
06/27/2020 07:00 655.34 0.00 58.3 98.0 --
06/27/2020 06:00 655.34 0.00 58.6 97.0 --
06/27/2020 05:00 655.34 0.00 59.1 97.0 --
06/27/2020 04:00 655.34 0.00 59.4 95.0 --
06/27/2020 03:00 655.33 0.00 61.1 87.0 --
06/27/2020 02:00 655.33 0.00 62.4 86.0 --
06/27/2020 01:00 655.33 0.00 64.1 84.0 --
06/27/2020 00:00 655.34 0.00 65.6 77.0 --
06/26/2020 23:00 655.34 0.00 68.0 74.0 --
06/26/2020 22:00 655.33 0.00 69.4 63.0 --
06/26/2020 21:00 655.33 0.00 71.1 64.0 --
06/26/2020 20:00 655.34 0.00 78.9 41.0 --
06/26/2020 19:00 655.34 0.00 78.1 47.0 --
06/26/2020 18:00 655.34 0.00 76.4 50.0 --
06/26/2020 17:00 655.33 0.00 71.6 74.0 --
06/26/2020 16:00 655.33 0.00 68.7 73.0 --
06/26/2020 15:00 655.35 0.00 73.2 53.0 --
06/26/2020 14:00 655.34 0.00 76.8 45.0 --
06/26/2020 13:00 655.34 0.00 75.9 46.0 --
06/26/2020 12:00 655.34 0.00 73.4 51.0 --
06/26/2020 11:00 655.33 0.00 71.4 61.0 --
06/26/2020 10:00 655.34 0.00 70.2 62.0 --
06/26/2020 09:00 655.34 0.00 67.9 69.0 --
06/26/2020 08:00 655.34 0.00 63.1 81.0 --
06/26/2020 07:00 655.34 0.00 61.9 84.0 --
06/26/2020 06:00 655.34 0.00 63.6 80.0 --
06/26/2020 05:00 655.34 0.00 64.5 76.0 --
06/26/2020 04:00 655.33 0.00 66.1 73.0 --
06/26/2020 03:00 655.35 0.00 66.3 74.0 --
06/26/2020 02:00 655.35 0.00 65.5 74.0 --
06/26/2020 01:00 655.34 0.00 67.3 67.0 --
06/26/2020 00:00 655.34 0.00 70.4 57.0 --
06/25/2020 23:00 655.34 0.00 67.5 68.0 --
06/25/2020 22:00 655.34 0.00 67.4 65.0 --
06/25/2020 21:00 655.34 0.00 76.4 44.0 --
06/25/2020 20:00 655.35 0.00 79.3 37.0 --
06/25/2020 19:00 655.34 0.00 79.4 36.0 --
06/25/2020 18:00 655.35 0.00 78.6 35.0 --
06/25/2020 17:00 655.36 0.00 79.1 34.0 --
06/25/2020 16:00 655.35 0.00 78.1 34.0 --
06/25/2020 15:00 655.35 0.00 77.1 37.0 --
06/25/2020 14:00 655.35 0.00 75.3 41.0 --
06/25/2020 13:00 655.37 0.00 74.5 41.0 --
06/25/2020 12:00 655.35 0.00 73.0 41.0 --
06/25/2020 11:00 655.35 0.00 71.7 52.0 --
06/25/2020 10:00 655.36 0.00 68.5 59.0 --
06/25/2020 09:00 655.36 0.00 64.4 76.0 --
06/25/2020 08:00 655.36 0.00 58.8 99.0 --
06/25/2020 07:00 655.36 0.00 58.0 100.0 --
06/25/2020 06:00 655.36 0.00 58.1 100.0 --
06/25/2020 05:00 655.36 0.00 58.8 100.0 --
06/25/2020 04:00 655.36 0.00 59.5 98.0 --
06/25/2020 03:00 655.36 0.00 58.6 98.0 --
06/25/2020 02:00 655.36 0.00 61.3 92.0 --
06/25/2020 01:00 655.35 0.00 61.1 91.0 --
06/25/2020 00:00 655.36 0.00 63.1 82.0 --
06/24/2020 23:00 655.36 0.00 64.6 77.0 --
06/24/2020 22:00 655.35 0.00 67.5 69.0 --
06/24/2020 21:00 655.35 0.00 75.8 51.0 --
06/24/2020 20:00 655.35 0.00 77.9 45.0 --
06/24/2020 19:00 655.38 0.00 79.4 40.0 --
06/24/2020 18:00 655.34 0.00 80.4 47.0 --
06/24/2020 17:00 655.36 0.00 79.5 55.0 --
06/24/2020 16:00 655.36 0.00 79.1 60.0 --
06/24/2020 15:00 655.37 0.00 78.4 66.0 --
06/24/2020 14:00 655.38 0.00 76.8 69.0 --
06/24/2020 13:00 655.37 0.00 76.7 76.0 --
06/24/2020 12:00 655.37 0.00 74.1 88.0 --
06/24/2020 11:00 655.37 0.00 72.7 91.0 --
06/24/2020 10:00 655.37 0.00 71.9 95.0 --
06/24/2020 09:00 655.37 0.00 70.0 99.0 --
06/24/2020 08:00 655.37 0.00 69.3 100.0 --
06/24/2020 07:00 655.36 0.00 68.6 100.0 --
06/24/2020 06:00 655.37 0.00 68.0 100.0 --
06/24/2020 05:00 655.38 0.00 68.7 99.0 --
06/24/2020 04:00 655.37 0.00 69.5 94.0 --
06/24/2020 03:00 655.37 0.00 71.3 87.0 --
06/24/2020 02:00 655.37 0.00 72.9 80.0 --
06/24/2020 01:00 655.36 0.00 74.5 76.0 --
06/24/2020 00:00 655.37 0.00 75.4 74.0 --
06/23/2020 23:00 655.37 0.00 77.1 72.0 --
06/23/2020 22:00 655.37 0.00 77.8 71.0 --
06/23/2020 21:00 655.36 0.00 81.2 62.0 --
06/23/2020 20:00 655.37 0.00 83.8 57.0 --
06/23/2020 19:00 655.37 0.00 86.5 51.0 --
06/23/2020 18:00 655.38 0.00 86.6 50.0 --
06/23/2020 17:00 655.37 0.00 86.1 47.0 --
06/23/2020 16:00 655.38 0.00 87.2 45.0 --
06/23/2020 15:00 655.38 0.00 85.6 54.0 --
06/23/2020 14:00 655.38 0.00 85.0 58.0 --
06/23/2020 13:00 655.37 0.00 83.5 64.0 --
06/23/2020 12:00 655.38 0.00 80.5 72.0 --
06/23/2020 11:00 655.38 0.00 75.1 84.0 --
06/23/2020 10:00 655.37 0.00 70.9 100.0 --
06/23/2020 09:00 655.37 0.00 66.1 100.0 --
06/23/2020 08:00 655.37 0.00 63.7 100.0 --
06/23/2020 07:00 655.38 0.00 63.1 100.0 --
06/23/2020 06:00 655.38 0.00 62.4 100.0 --
06/23/2020 05:00 655.38 0.00 63.1 100.0 --
06/23/2020 04:00 655.38 0.00 63.9 100.0 --
06/23/2020 03:00 655.38 0.00 65.0 100.0 --
06/23/2020 02:00 655.37 0.00 66.0 100.0 --
06/23/2020 01:00 655.38 0.00 67.3 100.0 --
06/23/2020 00:00 655.39 0.00 68.3 100.0 --
06/22/2020 23:00 655.38 0.00 69.9 100.0 --
06/22/2020 22:00 655.37 0.00 72.4 100.0 --
06/22/2020 21:00 655.37 0.00 76.2 82.0 --
06/22/2020 20:00 655.37 0.00 80.9 69.0 --
06/22/2020 19:00 655.38 0.00 81.3 67.0 --
06/22/2020 18:00 655.38 0.00 80.7 67.0 --
06/22/2020 17:00 655.38 0.00 81.4 65.0 --
06/22/2020 16:00 655.38 0.00 79.3 70.0 --
06/22/2020 15:00 655.38 0.00 74.2 85.0 --
06/22/2020 14:00 655.38 0.00 71.5 95.0 --
06/22/2020 13:00 655.38 0.00 68.9 100.0 --
06/22/2020 12:00 655.38 0.00 68.2 100.0 --
06/22/2020 11:00 655.38 0.00 66.6 100.0 --
06/22/2020 10:00 655.39 0.00 65.8 100.0 --
06/22/2020 09:00 655.37 0.00 65.5 100.0 --
06/22/2020 08:00 655.38 0.00 65.5 100.0 --
06/22/2020 07:00 655.38 0.00 65.3 100.0 --
06/22/2020 06:00 655.38 0.00 65.8 100.0 --
06/22/2020 05:00 655.37 0.00 66.6 100.0 --
06/22/2020 04:00 655.37 0.00 67.1 100.0 --
06/22/2020 03:00 655.38 0.00 67.8 100.0 --
06/22/2020 02:00 655.39 0.00 68.6 100.0 --
06/22/2020 01:00 655.37 0.00 69.5 100.0 --
06/22/2020 00:00 655.38 0.00 69.2 100.0 --
06/21/2020 23:00 655.38 0.00 69.5 100.0 --
06/21/2020 22:00 655.38 0.00 69.5 100.0 --
06/21/2020 21:00 655.38 0.00 69.4 100.0 --
06/21/2020 20:00 655.38 0.00 69.4 100.0 --
06/21/2020 19:00 655.38 0.00 69.3 100.0 --
06/21/2020 18:00 655.38 0.00 69.3 100.0 --
06/21/2020 17:00 655.38 0.00 69.2 100.0 --
06/21/2020 16:00 655.38 0.00 69.2 100.0 --
06/21/2020 15:00 655.38 0.00 69.2 100.0 --
06/21/2020 14:00 655.38 0.00 69.1 100.0 --
06/21/2020 13:00 655.39 0.00 69.1 100.0 --
06/21/2020 12:00 655.39 0.00 69.0 100.0 --
06/21/2020 11:00 655.39 0.00 69.0 100.0 --
06/21/2020 10:00 655.39 0.00 69.0 100.0 --
06/21/2020 09:00 655.39 0.00 68.9 100.0 --
06/21/2020 08:00 655.39 0.00 68.9 100.0 --
06/21/2020 07:00 655.39 0.00 68.8 100.0 --
06/21/2020 06:00 655.39 0.00 68.8 100.0 --
06/21/2020 05:00 655.39 0.00 68.7 100.0 --
06/21/2020 04:00 655.39 0.00 68.7 100.0 --
06/21/2020 03:00 655.40 0.00 68.9 100.0 --
06/21/2020 02:00 655.39 0.00 68.7 100.0 --
06/21/2020 01:00 655.39 0.00 71.2 97.0 --
06/21/2020 00:00 655.40 0.00 72.2 -- --
06/20/2020 23:00 655.39 0.00 72.0 83.0 --
06/20/2020 22:00 655.39 0.00 73.4 86.0 --
06/20/2020 21:00 655.39 0.00 76.6 74.0 --
06/20/2020 20:00 655.39 0.00 85.1 54.0 --
06/20/2020 19:00 655.40 0.00 84.1 52.0 --
06/20/2020 18:00 655.38 0.01 83.2 54.0 --
06/20/2020 17:00 655.40 0.00 86.5 44.0 --
06/20/2020 16:00 655.40 0.00 86.7 41.0 --
06/20/2020 15:00 655.39 0.00 84.9 44.0 --
06/20/2020 14:00 655.40 0.00 83.7 52.0 --
06/20/2020 13:00 655.40 0.00 83.3 54.0 --
06/20/2020 12:00 655.40 0.00 81.5 56.0 --
06/20/2020 11:00 655.40 0.00 78.5 62.0 --
06/20/2020 10:00 655.39 0.00 75.7 68.0 --
06/20/2020 09:00 655.40 0.00 72.4 74.0 --
06/20/2020 08:00 655.39 0.00 69.5 82.0 --
06/20/2020 07:00 655.39 0.00 68.3 87.0 --
06/20/2020 06:00 655.39 0.00 68.7 84.0 --
06/20/2020 05:00 655.39 0.00 69.8 79.0 --
06/20/2020 04:00 655.40 0.00 71.4 73.0 --
06/20/2020 03:00 655.40 0.00 71.7 73.0 --
06/20/2020 02:00 655.40 0.00 73.0 72.0 --
06/20/2020 01:00 655.40 0.00 73.8 69.0 --
06/20/2020 00:00 655.40 0.00 73.0 73.0 --
06/19/2020 23:00 655.40 0.00 72.5 78.0 --
06/19/2020 22:00 655.40 0.00 73.4 73.0 --
06/19/2020 21:00 655.40 0.00 76.2 63.0 --
06/19/2020 20:00 655.40 0.00 84.3 43.0 --
06/19/2020 19:00 655.39 0.00 84.8 40.0 --
06/19/2020 18:00 655.40 0.00 84.7 43.0 --
06/19/2020 17:00 655.41 0.00 84.1 45.0 --
06/19/2020 16:00 655.41 0.00 83.5 49.0 --
06/19/2020 15:00 655.40 0.00 82.9 48.0 --
06/19/2020 14:00 655.41 0.00 81.2 56.0 --
06/19/2020 13:00 655.41 0.00 79.9 60.0 --
06/19/2020 12:00 655.41 0.00 77.7 67.0 --
06/19/2020 11:00 655.41 0.00 75.2 74.0 --
06/19/2020 10:00 655.41 0.00 73.0 80.0 --
06/19/2020 09:00 655.40 0.00 71.0 86.0 --
06/19/2020 08:00 655.41 0.00 68.8 94.0 --
06/19/2020 07:00 655.41 0.00 67.5 98.0 --
06/19/2020 06:00 655.41 0.00 69.2 91.0 --
06/19/2020 05:00 655.41 0.00 69.3 87.0 --
06/19/2020 04:00 655.41 0.00 70.3 85.0 --
06/19/2020 03:00 655.42 0.00 71.0 82.0 --
06/19/2020 02:00 655.41 0.00 72.1 84.0 --
06/19/2020 01:00 655.40 0.00 73.2 78.0 --
06/19/2020 00:00 655.41 0.00 74.2 75.0 --
06/18/2020 23:00 655.41 0.00 74.9 74.0 --
06/18/2020 22:00 655.41 0.00 76.6 69.0 --
06/18/2020 21:00 655.41 0.00 80.8 52.0 --
06/18/2020 20:00 655.40 0.00 84.3 40.0 --
06/18/2020 19:00 655.41 0.00 85.2 41.0 --
06/18/2020 18:00 655.42 0.00 85.4 36.0 --
06/18/2020 17:00 655.41 0.00 85.8 32.0 --
06/18/2020 16:00 655.41 0.00 85.1 33.0 --
06/18/2020 15:00 655.43 0.00 83.6 33.0 --
06/18/2020 14:00 655.42 0.00 82.1 38.0 --
06/18/2020 13:00 655.42 0.00 80.2 37.0 --
06/18/2020 12:00 655.41 0.00 77.6 48.0 --
06/18/2020 11:00 655.42 0.00 76.2 53.0 --
06/18/2020 10:00 655.42 0.00 71.5 69.0 --
06/18/2020 09:00 655.42 0.00 65.7 85.0 --
06/18/2020 08:00 655.42 0.00 59.9 100.0 --
06/18/2020 07:00 655.42 0.00 58.0 100.0 --
06/18/2020 06:00 655.42 0.00 58.1 100.0 --
06/18/2020 05:00 655.41 0.00 59.2 100.0 --
06/18/2020 04:00 655.41 0.00 59.9 94.0 --
06/18/2020 03:00 655.42 0.00 59.2 82.0 --
06/18/2020 02:00 655.42 0.00 59.6 80.0 --
06/18/2020 01:00 655.43 0.00 60.9 77.0 --
06/18/2020 00:00 655.42 0.00 61.8 70.0 --
06/17/2020 23:00 655.42 0.00 64.4 74.0 --
06/17/2020 22:00 655.42 0.00 68.9 64.0 --
06/17/2020 21:00 655.42 0.00 71.8 51.0 --
06/17/2020 20:00 655.42 0.00 79.6 39.0 --
06/17/2020 19:00 655.42 0.00 81.8 31.0 --
06/17/2020 18:00 655.42 0.00 81.7 31.0 --
06/17/2020 17:00 655.43 0.00 81.1 30.0 --
06/17/2020 16:00 655.43 0.00 81.2 32.0 --
06/17/2020 15:00 655.43 0.00 81.1 32.0 --
06/17/2020 14:00 655.43 0.00 76.8 39.0 --
06/17/2020 13:00 655.43 0.00 74.8 43.0 --
06/17/2020 12:00 655.43 0.00 71.9 49.0 --
06/17/2020 11:00 655.43 0.00 68.6 53.0 --
06/17/2020 10:00 655.42 0.00 66.1 68.0 --
06/17/2020 09:00 655.42 0.00 57.1 82.0 --
06/17/2020 08:00 655.43 0.00 51.3 100.0 --
06/17/2020 07:00 655.42 0.00 49.7 100.0 --
06/17/2020 06:00 655.42 0.00 50.3 100.0 --
06/17/2020 05:00 655.43 0.00 51.1 100.0 --
06/17/2020 04:00 655.43 0.00 52.3 97.0 --
06/17/2020 03:00 655.43 0.00 53.4 91.0 --
06/17/2020 02:00 655.42 0.00 54.8 87.0 --
06/17/2020 01:00 655.43 0.00 57.2 76.0 --
06/17/2020 00:00 655.42 0.00 57.5 77.0 --
06/16/2020 23:00 655.43 0.00 57.9 69.0 --
06/16/2020 22:00 655.43 0.00 61.8 62.0 --
06/16/2020 21:00 655.42 0.00 69.7 47.0 --
06/16/2020 20:00 655.43 0.00 75.4 41.0 --
06/16/2020 19:00 655.42 0.00 77.8 31.0 --
06/16/2020 18:00 655.43 0.00 77.5 32.0 --
06/16/2020 17:00 655.43 0.00 77.0 32.0 --
06/16/2020 16:00 655.41 0.00 76.0 34.0 --
06/16/2020 15:00 655.42 0.00 75.0 39.0 --
06/16/2020 14:00 655.43 0.00 74.3 40.0 --
06/16/2020 13:00 655.44 0.00 71.9 41.0 --
06/16/2020 12:00 655.42 0.00 71.1 50.0 --
06/16/2020 11:00 655.43 0.00 67.7 58.0 --
06/16/2020 10:00 655.42 0.00 63.2 78.0 --
06/16/2020 09:00 655.42 0.00 55.8 96.0 --
06/16/2020 08:00 655.43 0.00 50.7 100.0 --
06/16/2020 07:00 655.43 0.00 49.0 100.0 --
06/16/2020 06:00 655.42 0.00 48.4 100.0 --
06/16/2020 05:00 655.42 0.00 51.6 100.0 --
06/16/2020 04:00 655.43 0.00 52.3 100.0 --
06/16/2020 03:00 655.44 0.00 52.4 100.0 --
06/16/2020 02:00 655.43 0.00 52.9 100.0 --
06/16/2020 01:00 655.42 0.00 53.4 100.0 --
06/16/2020 00:00 655.44 0.00 54.3 100.0 --
06/15/2020 23:00 655.43 0.00 55.7 93.0 --
06/15/2020 22:00 655.43 0.00 57.0 85.0 --
06/15/2020 21:00 655.42 0.00 61.3 72.0 --
06/15/2020 20:00 655.44 0.00 69.6 54.0 --
06/15/2020 19:00 655.43 0.00 70.8 43.0 --
06/15/2020 18:00 655.43 0.00 68.7 50.0 --
06/15/2020 17:00 655.43 0.00 67.5 55.0 --
06/15/2020 16:00 655.44 0.00 68.0 54.0 --
06/15/2020 15:00 655.43 0.00 66.9 49.0 --
06/15/2020 14:00 655.43 0.00 66.9 49.0 --
06/15/2020 13:00 655.44 0.00 64.8 55.0 --
06/15/2020 12:00 655.44 0.00 63.4 60.0 --
06/15/2020 11:00 655.44 0.00 60.9 66.0 --
06/15/2020 10:00 655.43 0.00 59.3 73.0 --
06/15/2020 09:00 655.44 0.00 56.3 84.0 --
06/15/2020 08:00 655.43 0.00 50.9 100.0 --
06/15/2020 07:00 655.43 0.00 49.2 100.0 --
06/15/2020 06:00 655.43 0.00 50.0 100.0 --
06/15/2020 05:00 655.43 0.00 50.2 100.0 --
06/15/2020 04:00 655.43 0.00 48.7 100.0 --
06/15/2020 03:00 655.43 0.00 49.1 100.0 --
06/15/2020 02:00 655.43 0.00 50.9 98.0 --
06/15/2020 01:00 655.43 0.00 53.5 86.0 --
06/15/2020 00:00 655.44 0.00 57.0 77.0 --
06/14/2020 23:00 655.43 0.00 58.2 76.0 --
06/14/2020 22:00 655.43 0.00 59.7 72.0 --
06/14/2020 21:00 655.43 0.00 61.7 65.0 --
06/14/2020 20:00 655.43 0.00 64.2 57.0 --
06/14/2020 19:00 655.44 0.00 67.4 48.0 --
06/14/2020 18:00 655.43 0.00 68.2 46.0 --
06/14/2020 17:00 655.43 0.00 66.9 45.0 --
06/14/2020 16:00 655.44 0.00 66.2 43.0 --
06/14/2020 15:00 655.43 0.00 64.9 52.0 --
06/14/2020 14:00 655.43 0.00 63.9 49.0 --
06/14/2020 13:00 655.43 0.00 63.8 52.0 --
06/14/2020 12:00 655.44 0.00 61.7 58.0 --
06/14/2020 11:00 655.44 0.00 57.5 61.0 --
06/14/2020 10:00 655.44 0.00 55.4 67.0 --
06/14/2020 09:00 655.44 0.00 53.3 72.0 --
06/14/2020 08:00 655.45 0.00 49.0 90.0 --
06/14/2020 07:00 655.45 0.00 45.4 100.0 --
06/14/2020 06:00 655.45 0.00 45.7 98.0 --
06/14/2020 05:00 655.44 0.00 46.6 89.0 --
06/14/2020 04:00 655.44 0.00 48.4 78.0 --
06/14/2020 03:00 655.45 0.00 47.1 84.0 --
06/14/2020 02:00 655.44 0.00 50.3 73.0 --
06/14/2020 01:00 655.45 0.00 50.5 70.0 --
06/14/2020 00:00 655.44 0.00 50.4 71.0 --
06/13/2020 23:00 655.44 0.00 49.4 75.0 --
06/13/2020 22:00 655.45 0.00 52.0 64.0 --
06/13/2020 21:00 655.43 0.00 55.3 55.0 --
06/13/2020 20:00 655.45 0.00 57.3 54.0 --
06/13/2020 19:00 655.44 0.00 59.0 51.0 --
06/13/2020 18:00 655.43 0.00 60.8 48.0 --
06/13/2020 17:00 655.44 0.00 61.6 47.0 --
06/13/2020 16:00 655.45 0.00 63.9 44.0 --
06/13/2020 15:00 655.46 0.00 63.4 35.0 --
06/13/2020 14:00 655.46 0.00 62.4 39.0 --
06/13/2020 13:00 655.45 0.00 61.6 43.0 --
06/13/2020 12:00 655.45 0.00 60.4 46.0 --
06/13/2020 11:00 655.46 0.00 58.7 57.0 --
06/13/2020 10:00 655.45 0.00 56.3 63.0 --
06/13/2020 09:00 655.45 0.00 54.8 67.0 --
06/13/2020 08:00 655.45 0.00 51.1 77.0 --
06/13/2020 07:00 655.45 0.00 51.3 79.0 --
06/13/2020 06:00 655.45 0.00 48.3 87.0 --
06/13/2020 05:00 655.44 0.00 52.7 67.0 --
06/13/2020 04:00 655.46 0.01 50.1 75.0 --
06/13/2020 03:00 655.46 0.00 52.8 67.0 --
06/13/2020 02:00 655.46 0.00 57.5 50.0 --
06/13/2020 01:00 655.46 0.00 58.9 47.0 --
06/13/2020 00:00 655.46 0.00 63.0 46.0 --
06/12/2020 23:00 655.46 0.00 65.3 39.0 --
06/12/2020 22:00 655.45 0.00 67.8 41.0 --
06/12/2020 21:00 655.47 0.00 70.1 36.0 --
06/12/2020 20:00 655.46 0.00 73.5 39.0 --
06/12/2020 19:00 655.49 0.01 75.0 34.0 --
06/12/2020 18:00 655.49 0.00 76.1 36.0 --
06/12/2020 17:00 655.47 0.00 76.9 33.0 --
06/12/2020 16:00 655.47 0.00 76.9 37.0 --
06/12/2020 15:00 655.48 0.00 76.2 41.0 --
06/12/2020 14:00 655.47 0.00 75.4 40.0 --
06/12/2020 13:00 655.48 0.00 74.0 41.0 --
06/12/2020 12:00 655.47 0.00 72.2 46.0 --
06/12/2020 11:00 655.47 0.00 70.2 55.0 --
06/12/2020 10:00 655.48 0.00 65.7 85.0 --
06/12/2020 09:00 655.48 0.00 60.0 100.0 --
06/12/2020 08:00 655.47 0.00 58.4 100.0 --
06/12/2020 07:00 655.48 0.01 57.0 100.0 --
06/12/2020 06:00 655.47 0.00 56.9 100.0 --
06/12/2020 05:00 655.48 0.00 58.5 100.0 --
06/12/2020 04:00 655.48 0.00 60.9 100.0 --
06/12/2020 03:00 655.47 0.00 64.1 100.0 --
06/12/2020 02:00 655.48 0.00 65.8 100.0 --
06/12/2020 01:00 655.48 0.00 69.3 100.0 --
06/12/2020 00:00 655.48 0.00 70.5 100.0 --
06/11/2020 23:00 655.48 0.00 71.0 100.0 --
06/11/2020 22:00 655.48 0.00 72.7 93.0 --
06/11/2020 21:00 655.48 0.00 74.1 87.0 --
06/11/2020 20:00 655.49 0.01 73.8 89.0 --
06/11/2020 19:00 655.49 0.00 74.5 85.0 --
06/11/2020 18:00 655.49 0.00 75.0 81.0 --
06/11/2020 17:00 655.49 0.01 76.7 78.0 --
06/11/2020 16:00 655.50 0.01 75.6 80.0 --
06/11/2020 15:00 655.49 0.01 73.9 91.0 --
06/11/2020 14:00 655.49 0.01 71.6 100.0 --
06/11/2020 13:00 655.47 0.01 65.5 100.0 --
06/11/2020 12:00 655.48 0.01 61.3 100.0 --
06/11/2020 11:00 655.45 0.00 58.7 100.0 --
06/11/2020 10:00 655.45 0.00 57.5 100.0 --
06/11/2020 09:00 655.45 0.00 56.8 100.0 --
06/11/2020 08:00 655.45 0.00 56.0 100.0 --
06/11/2020 07:00 655.46 0.00 55.6 100.0 --
06/11/2020 06:00 655.45 0.00 56.0 100.0 --
06/11/2020 05:00 655.45 0.00 55.4 100.0 --
06/11/2020 04:00 655.45 0.00 55.5 100.0 --
06/11/2020 03:00 655.45 0.00 55.4 100.0 --
06/11/2020 02:00 655.46 0.00 56.5 93.0 --
06/11/2020 01:00 655.45 0.00 56.7 89.0 --
06/11/2020 00:00 655.45 0.00 57.3 88.0 --
06/10/2020 23:00 655.45 0.00 58.6 82.0 --
06/10/2020 22:00 655.45 0.00 59.6 80.0 --
06/10/2020 21:00 655.45 0.00 61.6 79.0 --
06/10/2020 20:00 655.46 0.00 63.5 75.0 --
06/10/2020 19:00 655.46 0.00 66.1 69.0 --
06/10/2020 18:00 655.46 0.00 68.6 60.0 --
06/10/2020 17:00 655.44 0.00 69.5 45.0 --
06/10/2020 16:00 655.46 0.00 70.2 42.0 --
06/10/2020 15:00 655.46 0.00 71.5 42.0 --
06/10/2020 14:00 655.44 0.00 70.3 48.0 --
06/10/2020 13:00 655.45 0.00 69.8 48.0 --
06/10/2020 12:00 655.46 0.00 68.2 54.0 --
06/10/2020 11:00 655.45 0.00 66.7 55.0 --
06/10/2020 10:00 655.46 0.00 64.7 66.0 --
06/10/2020 09:00 655.46 0.00 62.8 78.0 --
06/10/2020 08:00 655.45 0.00 56.5 100.0 --
06/10/2020 07:00 655.46 0.00 55.4 100.0 --
06/10/2020 06:00 655.45 0.00 55.3 100.0 --
06/10/2020 05:00 655.46 0.00 56.7 100.0 --
06/10/2020 04:00 655.45 0.00 58.9 97.0 --
06/10/2020 03:00 655.46 0.00 59.6 92.0 --
06/10/2020 02:00 655.46 0.00 60.4 90.0 --
06/10/2020 01:00 655.46 0.00 60.6 88.0 --
06/10/2020 00:00 655.45 0.00 61.1 85.0 --
06/09/2020 23:00 655.45 0.00 62.3 82.0 --
06/09/2020 22:00 655.45 0.00 63.3 79.0 --
06/09/2020 21:00 655.45 0.00 64.8 72.0 --
06/09/2020 20:00 655.45 0.00 67.2 67.0 --
06/09/2020 19:00 655.45 0.00 69.3 59.0 --
06/09/2020 18:00 655.46 0.00 70.5 59.0 --
06/09/2020 17:00 655.45 0.00 70.2 55.0 --
06/09/2020 16:00 655.45 0.00 69.2 62.0 --
06/09/2020 15:00 655.46 0.00 69.7 48.0 --
06/09/2020 14:00 655.46 0.00 67.6 51.0 --
06/09/2020 13:00 655.46 0.00 67.0 55.0 --
06/09/2020 12:00 655.46 0.00 65.1 50.0 --
06/09/2020 11:00 655.45 0.00 64.1 61.0 --
06/09/2020 10:00 655.46 0.00 62.2 63.0 --
06/09/2020 09:00 655.46 0.00 59.4 71.0 --
06/09/2020 08:00 655.46 0.00 57.9 74.0 --
06/09/2020 07:00 655.46 0.00 57.6 72.0 --
06/09/2020 06:00 655.46 0.00 57.4 72.0 --
06/09/2020 05:00 655.46 0.00 57.3 75.0 --
06/09/2020 04:00 655.45 0.00 56.5 73.0 --
06/09/2020 03:00 655.46 0.00 57.2 75.0 --
06/09/2020 02:00 655.46 0.00 57.0 73.0 --
06/09/2020 01:00 655.46 0.00 56.5 76.0 --
06/09/2020 00:00 655.47 0.00 56.2 72.0 --
06/08/2020 23:00 655.46 0.00 58.2 65.0 --
06/08/2020 22:00 655.46 0.00 58.9 62.0 --
06/08/2020 21:00 655.46 0.00 64.5 48.0 --
06/08/2020 20:00 655.45 0.00 71.8 33.0 --
06/08/2020 19:00 655.45 0.00 72.7 30.0 --
06/08/2020 18:00 655.46 0.00 72.4 31.0 --
06/08/2020 17:00 655.45 0.00 71.5 34.0 --
06/08/2020 16:00 655.44 0.00 70.9 35.0 --
06/08/2020 15:00 655.45 0.00 69.3 38.0 --
06/08/2020 14:00 655.46 0.00 68.0 38.0 --
06/08/2020 13:00 655.46 0.01 66.9 39.0 --
06/08/2020 12:00 655.48 0.00 65.2 41.0 --
06/08/2020 11:00 655.47 0.00 63.9 47.0 --
06/08/2020 10:00 655.47 0.00 61.7 51.0 --
06/08/2020 09:00 655.48 0.00 58.0 66.0 --
06/08/2020 08:00 655.47 0.00 52.7 76.0 --
06/08/2020 07:00 655.48 0.00 49.6 88.0 --
06/08/2020 06:00 655.47 0.00 49.6 94.0 --
06/08/2020 05:00 655.47 0.00 49.4 100.0 --
06/08/2020 04:00 655.48 0.00 49.5 96.0 --
06/08/2020 03:00 655.47 0.00 49.8 92.0 --
06/08/2020 02:00 655.47 0.00 51.3 88.0 --
06/08/2020 01:00 655.47 0.00 53.2 83.0 --
06/08/2020 00:00 655.47 0.00 54.2 79.0 --
06/07/2020 23:00 655.48 0.00 54.2 80.0 --
06/07/2020 22:00 655.48 0.00 55.7 75.7 --
06/07/2020 21:00 655.47 0.00 57.2 71.4 --
06/07/2020 20:00 655.47 0.00 58.7 67.1 --
06/07/2020 19:00 655.47 0.00 60.2 62.9 --
06/07/2020 18:00 655.47 0.00 61.7 58.6 --
06/07/2020 17:00 655.46 0.00 63.2 54.3 --
06/07/2020 16:00 655.46 0.00 64.7 50.0 --
06/07/2020 15:00 655.48 0.00 64.1 52.0 --
06/07/2020 14:00 655.48 0.00 62.6 57.0 --
06/07/2020 13:00 655.49 0.00 62.7 57.0 --
06/07/2020 12:00 655.47 0.00 59.7 63.0 --
06/07/2020 11:00 655.49 0.00 59.5 67.0 --
06/07/2020 10:00 655.48 0.00 57.8 73.0 --
06/07/2020 09:00 655.46 0.00 57.6 73.0 --
06/07/2020 08:00 655.48 0.00 56.4 76.0 --
06/07/2020 07:00 655.48 0.00 56.0 78.0 --
06/07/2020 06:00 655.48 0.00 56.6 81.0 --
06/07/2020 05:00 655.48 0.00 54.3 100.0 --
06/07/2020 04:00 655.47 0.00 53.7 100.0 --
06/07/2020 03:00 655.49 0.00 58.4 81.0 --
06/07/2020 02:00 655.49 0.00 58.2 86.0 --
06/07/2020 01:00 655.48 0.00 54.9 100.0 --
06/07/2020 00:00 655.49 0.04 56.7 100.0 --
06/06/2020 23:00 655.50 0.10 60.4 91.0 --
06/06/2020 22:00 655.53 0.04 62.9 84.0 --
06/06/2020 21:00 655.47 0.00 69.7 72.0 --
06/06/2020 20:00 655.47 0.00 75.2 56.0 --
06/06/2020 19:00 655.47 0.00 76.1 56.0 --
06/06/2020 18:00 655.47 0.00 76.3 56.0 --
06/06/2020 17:00 655.48 0.00 75.9 55.0 --
06/06/2020 16:00 655.47 0.00 75.6 48.0 --
06/06/2020 15:00 655.48 0.00 82.6 46.0 --
06/06/2020 14:00 655.48 0.00 81.5 52.0 --
06/06/2020 13:00 655.48 0.00 79.9 56.0 --
06/06/2020 12:00 655.50 0.00 77.6 67.0 --
06/06/2020 11:00 655.50 0.00 74.8 77.0 --
06/06/2020 10:00 655.49 0.00 72.2 86.0 --
06/06/2020 09:00 655.49 0.00 70.3 96.0 --
06/06/2020 08:00 655.48 0.00 68.6 100.0 --
06/06/2020 07:00 655.49 0.00 65.8 100.0 --
06/06/2020 06:00 655.49 0.00 68.1 100.0 --
06/06/2020 05:00 655.48 0.00 69.6 98.0 --
06/06/2020 04:00 655.47 0.00 70.2 97.0 --
06/06/2020 03:00 655.48 0.00 70.4 96.0 --
06/06/2020 02:00 655.48 0.00 71.5 94.0 --
06/06/2020 01:00 655.48 0.00 71.7 95.0 --
06/06/2020 00:00 655.48 0.00 73.0 89.0 --
06/05/2020 23:00 655.49 0.00 74.0 82.0 --
06/05/2020 22:00 655.48 0.00 75.2 78.0 --
06/05/2020 21:00 655.48 0.00 77.7 71.0 --
06/05/2020 20:00 655.49 0.00 80.9 58.0 --
06/05/2020 19:00 655.49 0.00 81.1 56.0 --
06/05/2020 18:00 655.49 0.00 80.9 57.0 --
06/05/2020 17:00 655.48 0.00 80.2 59.0 --
06/05/2020 16:00 655.48 0.00 77.3 65.0 --
06/05/2020 15:00 655.47 0.00 75.8 68.0 --
06/05/2020 14:00 655.47 0.00 73.8 75.0 --
06/05/2020 13:00 655.49 0.00 73.3 76.0 --
06/05/2020 12:00 655.48 0.00 72.9 77.0 --
06/05/2020 11:00 655.48 0.00 72.8 74.0 --
06/05/2020 10:00 655.47 0.00 71.0 79.0 --
06/05/2020 09:00 655.48 0.00 69.4 82.0 --
06/05/2020 08:00 655.48 0.00 68.8 80.0 --
06/05/2020 07:00 655.48 0.00 71.0 71.0 --
06/05/2020 06:00 655.48 0.00 67.3 77.0 --
06/05/2020 05:00 655.48 0.00 70.0 65.0 --
06/05/2020 04:00 655.47 0.00 70.8 64.0 --
06/05/2020 03:00 655.48 0.00 69.4 68.0 --
06/05/2020 02:00 655.46 0.00 65.8 76.0 --
06/05/2020 01:00 655.47 0.00 73.1 58.0 --
06/05/2020 00:00 655.47 0.00 68.4 75.0 --
06/04/2020 23:00 655.47 0.00 68.0 75.0 --
06/04/2020 22:00 655.47 0.00 68.4 68.0 --
06/04/2020 21:00 655.47 0.00 74.5 55.0 --
06/04/2020 20:00 655.48 0.00 81.2 41.0 --
06/04/2020 19:00 655.49 0.00 82.9 33.0 --
06/04/2020 18:00 655.49 0.00 82.4 35.0 --
06/04/2020 17:00 655.48 0.00 81.4 35.0 --
06/04/2020 16:00 655.53 0.00 81.3 35.0 --
06/04/2020 15:00 655.49 0.01 80.6 37.0 --
06/04/2020 14:00 655.49 0.00 77.8 44.0 --
06/04/2020 13:00 655.49 0.00 75.1 48.0 --
06/04/2020 12:00 655.48 0.00 72.6 53.0 --
06/04/2020 11:00 655.49 0.00 70.4 57.0 --
06/04/2020 10:00 655.48 0.00 67.9 71.0 --
06/04/2020 09:00 655.48 0.00 64.5 86.0 --
06/04/2020 08:00 655.48 0.00 58.3 100.0 --
06/04/2020 07:00 655.48 0.00 55.4 100.0 --
06/04/2020 06:00 655.48 0.00 58.4 100.0 --
06/04/2020 05:00 655.49 0.00 58.3 100.0 --
06/04/2020 04:00 655.48 0.00 57.1 100.0 --
06/04/2020 03:00 655.49 0.00 57.8 100.0 --
06/04/2020 02:00 655.48 0.00 58.9 100.0 --
06/04/2020 01:00 655.48 0.00 57.9 100.0 --
06/04/2020 00:00 655.49 0.00 59.1 100.0 --
06/03/2020 23:00 655.49 0.00 61.6 100.0 --
06/03/2020 22:00 655.48 0.00 63.6 100.0 --
06/03/2020 21:00 655.49 0.00 66.9 85.0 --
06/03/2020 20:00 655.50 0.01 67.6 87.0 --
06/03/2020 19:00 655.48 0.00 71.8 68.0 --
06/03/2020 18:00 655.49 0.00 74.5 60.0 --
06/03/2020 17:00 655.49 0.00 72.1 66.0 --
06/03/2020 16:00 655.49 0.00 70.6 68.0 --
06/03/2020 15:00 655.48 0.00 70.0 69.0 --
06/03/2020 14:00 655.48 0.00 70.4 62.0 --
06/03/2020 13:00 655.48 0.00 69.5 64.0 --
06/03/2020 12:00 655.49 0.00 67.4 66.0 --
06/03/2020 11:00 655.49 0.00 64.2 68.0 --
06/03/2020 10:00 655.48 0.00 59.8 81.0 --
06/03/2020 09:00 655.49 0.00 56.5 97.0 --
06/03/2020 08:00 655.48 0.00 54.6 100.0 --
06/03/2020 07:00 655.48 0.00 52.7 100.0 --
06/03/2020 06:00 655.48 0.00 52.3 100.0 --
06/03/2020 05:00 655.47 0.00 53.0 100.0 --
06/03/2020 04:00 655.49 0.00 53.4 100.0 --
06/03/2020 03:00 655.48 0.00 53.9 100.0 --
06/03/2020 02:00 655.48 0.01 54.0 100.0 --
06/03/2020 01:00 655.48 0.00 54.8 94.0 --
06/03/2020 00:00 655.48 0.00 56.4 88.0 --
06/02/2020 23:00 655.49 0.00 55.8 86.0 --
06/02/2020 22:00 655.48 0.00 57.7 78.0 --
06/02/2020 21:00 655.48 0.00 58.2 85.0 --
06/02/2020 20:00 655.47 0.01 58.3 83.0 --
06/02/2020 19:00 655.48 0.00 64.7 45.0 --
06/02/2020 18:00 655.47 0.00 65.1 47.0 --
06/02/2020 17:00 655.48 0.00 65.2 48.0 --
06/02/2020 16:00 655.48 0.00 65.5 47.0 --
06/02/2020 15:00 655.48 0.00 64.6 46.0 --
06/02/2020 14:00 655.46 0.00 61.6 50.0 --
06/02/2020 13:00 655.48 0.00 57.9 54.0 --
06/02/2020 12:00 655.48 0.00 55.5 57.0 --
06/02/2020 11:00 655.46 0.00 54.8 50.0 --
06/02/2020 10:00 655.47 0.00 50.4 78.0 --
06/02/2020 09:00 655.47 0.00 46.6 90.0 --
06/02/2020 08:00 655.47 0.00 43.0 100.0 --
06/02/2020 07:00 655.46 0.00 40.8 100.0 --
06/02/2020 06:00 655.46 0.00 40.6 100.0 --
06/02/2020 05:00 655.47 0.00 41.2 100.0 --
06/02/2020 04:00 655.46 0.00 42.2 100.0 --
06/02/2020 03:00 655.46 0.00 42.9 100.0 --
06/02/2020 02:00 655.46 0.00 43.8 96.0 --
06/02/2020 01:00 655.46 0.00 44.1 98.0 --
06/02/2020 00:00 655.45 0.00 47.0 87.0 --
06/01/2020 23:00 655.46 0.00 47.4 82.0 --
06/01/2020 22:00 655.47 0.00 52.2 65.0 --
06/01/2020 21:00 655.44 0.00 55.0 51.0 --
06/01/2020 20:00 655.46 0.00 57.0 47.0 --
06/01/2020 19:00 655.47 0.00 58.7 39.0 --
06/01/2020 18:00 655.46 0.00 59.1 36.0 --
06/01/2020 17:00 655.46 0.00 59.4 31.0 --
06/01/2020 16:00 655.48 0.00 56.4 37.0 --
06/01/2020 15:00 655.45 0.00 55.4 39.0 --
06/01/2020 14:00 655.44 0.00 52.4 47.0 --
06/01/2020 13:00 655.45 0.00 52.6 45.0 --
06/01/2020 12:00 655.46 0.00 52.6 41.0 --
06/01/2020 11:00 655.46 0.00 51.5 42.0 --
06/01/2020 10:00 655.46 0.00 49.2 56.0 --
06/01/2020 09:00 655.46 0.00 46.2 69.0 --
06/01/2020 08:00 655.47 0.00 41.2 86.0 --
06/01/2020 07:00 655.47 0.00 38.3 91.0 --
06/01/2020 06:00 655.46 0.00 40.0 80.0 --
06/01/2020 05:00 655.46 0.00 41.0 76.0 --
06/01/2020 04:00 655.47 0.00 41.1 84.0 --
06/01/2020 03:00 655.47 0.00 40.5 85.0 --
06/01/2020 02:00 655.47 0.00 39.3 96.0 --
06/01/2020 01:00 655.46 0.00 39.5 87.0 --
06/01/2020 00:00 655.45 0.00 41.3 79.0 --
05/31/2020 23:00 655.45 0.00 43.5 65.0 --
05/31/2020 22:00 655.45 0.00 48.2 55.0 --
05/31/2020 21:00 655.43 0.00 50.6 47.0 --
05/31/2020 20:00 655.45 0.00 53.3 47.0 --
05/31/2020 19:00 655.45 0.00 56.8 43.0 --
05/31/2020 18:00 655.47 0.00 57.0 37.0 --
05/31/2020 17:00 655.46 0.00 56.2 40.0 --
05/31/2020 16:00 655.45 0.00 56.6 39.0 --
05/31/2020 15:00 655.45 0.00 57.3 37.0 --
05/31/2020 14:00 655.45 0.00 56.3 42.0 --
05/31/2020 13:00 655.46 0.00 55.6 43.0 --
05/31/2020 12:00 655.47 0.00 54.3 46.0 --
05/31/2020 11:00 655.47 0.00 52.6 48.0 --
05/31/2020 10:00 655.47 0.00 50.9 55.0 --
05/31/2020 09:00 655.48 0.00 50.2 62.0 --
05/31/2020 08:00 655.48 0.00 50.6 65.0 --
05/31/2020 07:00 655.48 0.00 53.0 67.0 --
05/31/2020 06:00 655.46 0.00 55.5 69.0 --
05/31/2020 05:00 655.47 0.00 57.7 68.0 --
05/31/2020 04:00 655.49 0.00 58.3 74.0 --
05/31/2020 03:00 655.48 0.00 59.1 79.0 --
05/31/2020 02:00 655.47 0.00 59.6 77.0 --
05/31/2020 01:00 655.48 0.00 60.2 77.0 --
05/31/2020 00:00 655.48 0.00 62.1 74.0 --
05/30/2020 23:00 655.47 0.00 63.7 64.0 --
05/30/2020 22:00 655.48 0.00 62.2 74.0 --
05/30/2020 21:00 655.48 0.00 67.0 59.0 --
05/30/2020 20:00 655.47 0.00 73.4 39.0 --
05/30/2020 19:00 655.49 0.00 74.3 38.0 --
05/30/2020 18:00 655.48 0.00 74.0 38.0 --
05/30/2020 17:00 655.49 0.00 73.6 41.0 --
05/30/2020 16:00 655.49 0.00 72.4 45.0 --
05/30/2020 15:00 655.49 0.00 71.8 45.0 --
05/30/2020 14:00 655.48 0.00 70.5 49.0 --
05/30/2020 13:00 655.48 0.00 70.4 47.0 --
05/30/2020 12:00 655.49 0.00 68.8 52.0 --
05/30/2020 11:00 655.50 0.00 68.6 56.0 --
05/30/2020 10:00 655.50 0.00 68.7 58.0 --
05/30/2020 09:00 655.49 0.00 69.5 64.0 --
05/30/2020 08:00 655.50 0.00 69.1 77.0 --
05/30/2020 07:00 655.50 0.00 69.6 80.0 --
05/30/2020 06:00 655.49 0.00 68.9 93.0 --
05/30/2020 05:00 655.49 0.00 68.9 93.0 --
05/30/2020 04:00 655.48 0.00 69.4 88.0 --
05/30/2020 03:00 655.49 0.00 70.5 85.0 --
05/30/2020 02:00 655.49 0.00 71.5 82.0 --
05/30/2020 01:00 655.50 0.00 72.8 82.0 --
05/30/2020 00:00 655.51 0.00 73.4 81.0 --
05/29/2020 23:00 655.50 0.00 74.3 80.0 --
05/29/2020 22:00 655.51 0.00 75.4 78.0 --
05/29/2020 21:00 655.46 0.00 77.1 73.0 --
05/29/2020 20:00 655.49 0.00 78.9 66.0 --
05/29/2020 19:00 655.51 0.00 80.0 63.0 --
05/29/2020 18:00 655.49 0.00 81.0 64.0 --
05/29/2020 17:00 655.48 0.00 82.1 60.0 --
05/29/2020 16:00 655.51 0.00 82.1 62.0 --
05/29/2020 15:00 655.50 0.00 80.2 65.0 --
05/29/2020 14:00 655.49 0.00 79.0 66.0 --
05/29/2020 13:00 655.48 0.00 78.6 69.0 --
05/29/2020 12:00 655.50 0.00 77.9 68.0 --
05/29/2020 11:00 655.49 0.00 76.1 75.0 --
05/29/2020 10:00 655.50 0.00 74.6 79.0 --
05/29/2020 09:00 655.51 0.00 72.9 86.0 --
05/29/2020 08:00 655.49 0.00 71.4 92.0 --
05/29/2020 07:00 655.49 0.00 70.7 95.0 --
05/29/2020 06:00 655.51 0.00 71.1 95.0 --
05/29/2020 05:00 655.49 0.00 71.5 92.0 --
05/29/2020 04:00 655.50 0.00 70.7 96.0 --
05/29/2020 03:00 655.49 0.00 71.0 94.0 --
05/29/2020 02:00 655.50 0.00 70.6 93.0 --
05/29/2020 01:00 655.48 0.00 70.5 94.0 --
05/29/2020 00:00 655.49 0.00 70.2 92.0 --
05/28/2020 23:00 655.48 0.00 70.7 86.0 --
05/28/2020 22:00 655.49 0.00 72.2 79.0 --
05/28/2020 21:00 655.49 0.00 73.9 72.0 --
05/28/2020 20:00 655.50 0.00 75.2 69.0 --
05/28/2020 19:00 655.50 0.00 75.9 67.0 --
05/28/2020 18:00 655.51 0.00 76.9 66.0 --
05/28/2020 17:00 655.51 0.00 77.3 65.0 --
05/28/2020 16:00 655.50 0.00 76.8 67.0 --
05/28/2020 15:00 655.50 0.00 75.5 71.0 --
05/28/2020 14:00 655.50 0.00 75.8 67.0 --
05/28/2020 13:00 655.51 0.00 76.1 63.0 --
05/28/2020 12:00 655.49 0.00 75.0 62.0 --
05/28/2020 11:00 655.49 0.00 72.0 72.0 --
05/28/2020 10:00 655.50 0.00 70.4 77.0 --
05/28/2020 09:00 655.50 0.00 68.8 84.0 --
05/28/2020 08:00 655.51 0.00 67.0 89.0 --
05/28/2020 07:00 655.50 0.00 66.1 91.0 --
05/28/2020 06:00 655.50 0.00 66.5 90.0 --
05/28/2020 05:00 655.51 0.00 67.1 91.0 --
05/28/2020 04:00 655.50 0.00 66.5 92.0 --
05/28/2020 03:00 655.51 0.00 67.0 90.0 --
05/28/2020 02:00 655.51 0.00 68.5 87.0 --
05/28/2020 01:00 655.50 0.00 69.8 79.0 --
05/28/2020 00:00 655.52 0.00 71.5 72.0 --
05/27/2020 23:00 655.51 0.00 70.4 69.0 --
05/27/2020 22:00 655.50 0.00 75.8 56.0 --
05/27/2020 21:00 655.50 0.00 79.3 53.0 --
05/27/2020 20:00 655.50 0.00 83.1 45.0 --
05/27/2020 19:00 655.51 0.00 85.4 35.0 --
05/27/2020 18:00 655.51 0.00 86.0 37.0 --
05/27/2020 17:00 655.52 0.00 86.5 40.0 --
05/27/2020 16:00 655.52 0.00 86.7 42.0 --
05/27/2020 15:00 655.53 0.00 84.9 44.0 --
05/27/2020 14:00 655.51 0.00 83.8 40.0 --
05/27/2020 13:00 655.52 0.00 82.6 49.0 --
05/27/2020 12:00 655.52 0.00 80.9 57.0 --
05/27/2020 11:00 655.52 0.00 78.3 62.0 --
05/27/2020 10:00 655.51 0.00 73.0 78.0 --
05/27/2020 09:00 655.51 0.00 67.2 93.0 --
05/27/2020 08:00 655.52 0.00 62.2 100.0 --
05/27/2020 07:00 655.52 0.00 60.1 100.0 --
05/27/2020 06:00 655.51 0.00 61.7 100.0 --
05/27/2020 05:00 655.52 0.00 61.6 100.0 --
05/27/2020 04:00 655.51 0.00 63.8 100.0 --
05/27/2020 03:00 655.52 0.00 64.4 100.0 --
05/27/2020 02:00 655.51 0.00 66.4 100.0 --
05/27/2020 01:00 655.52 0.00 66.3 100.0 --
05/27/2020 00:00 655.52 0.00 67.8 99.0 --
05/26/2020 23:00 655.51 0.00 67.6 96.0 --
05/26/2020 22:00 655.52 0.00 70.1 86.0 --
05/26/2020 21:00 655.52 0.00 74.6 72.0 --
05/26/2020 20:00 655.52 0.00 83.0 52.0 --
05/26/2020 19:00 655.52 0.00 84.4 49.0 --
05/26/2020 18:00 655.52 0.00 84.8 47.0 --
05/26/2020 17:00 655.53 0.00 84.1 50.0 --
05/26/2020 16:00 655.52 0.00 81.9 53.0 --
05/26/2020 15:00 655.53 0.00 79.1 57.0 --
05/26/2020 14:00 655.53 0.00 77.7 62.0 --
05/26/2020 13:00 655.52 0.00 75.5 65.0 --
05/26/2020 12:00 655.52 0.00 70.8 73.0 --
05/26/2020 11:00 655.52 0.00 67.2 82.0 --
05/26/2020 10:00 655.53 0.00 62.0 93.0 --
05/26/2020 09:00 655.52 0.00 59.6 100.0 --
05/26/2020 08:00 655.52 0.00 57.0 100.0 --
05/26/2020 07:00 655.52 0.00 55.8 100.0 --
05/26/2020 06:00 655.52 0.00 56.0 100.0 --
05/26/2020 05:00 655.52 0.00 56.0 100.0 --
05/26/2020 04:00 655.52 0.00 56.0 100.0 --
05/26/2020 03:00 655.53 0.00 56.2 100.0 --
05/26/2020 02:00 655.52 0.00 56.5 100.0 --
05/26/2020 01:00 655.53 0.00 57.1 100.0 --
05/26/2020 00:00 655.52 0.00 57.7 100.0 --
05/25/2020 23:00 655.53 0.00 58.6 100.0 --
05/25/2020 22:00 655.52 0.00 59.7 100.0 --
05/25/2020 21:00 655.52 0.00 62.4 87.0 --
05/25/2020 20:00 655.53 0.00 65.6 76.0 --
05/25/2020 19:00 655.53 0.00 65.1 74.0 --
05/25/2020 18:00 655.53 0.00 63.6 78.0 --
05/25/2020 17:00 655.53 0.00 64.1 77.0 --
05/25/2020 16:00 655.53 0.00 59.5 89.0 --
05/25/2020 15:00 655.52 0.00 57.9 95.0 --
05/25/2020 14:00 655.51 0.00 56.1 95.0 --
05/25/2020 13:00 655.52 0.00 55.5 94.0 --
05/25/2020 12:00 655.53 0.00 53.5 99.0 --
05/25/2020 11:00 655.51 0.00 49.8 100.0 --
05/25/2020 10:00 655.52 0.00 49.5 100.0 --
05/25/2020 09:00 655.52 0.00 47.7 100.0 --
05/25/2020 08:00 655.51 0.00 46.1 100.0 --
05/25/2020 07:00 655.52 0.00 45.8 100.0 --
05/25/2020 06:00 655.52 0.00 45.5 100.0 --
05/25/2020 05:00 655.53 0.00 45.1 100.0 --
05/25/2020 04:00 655.52 0.00 43.7 100.0 --
05/25/2020 03:00 655.52 0.00 42.1 100.0 --
05/25/2020 02:00 655.52 0.00 42.9 99.0 --
05/25/2020 01:00 655.52 0.00 44.1 91.0 --
05/25/2020 00:00 655.52 0.00 45.3 80.0 --
05/24/2020 23:00 655.52 0.00 47.5 68.0 --
05/24/2020 22:00 655.53 0.00 51.7 49.0 --
05/24/2020 21:00 655.52 0.00 56.4 36.0 --
05/24/2020 20:00 655.53 0.00 60.4 34.0 --
05/24/2020 19:00 655.52 0.00 62.7 32.0 --
05/24/2020 18:00 655.52 0.00 65.1 26.0 --
05/24/2020 17:00 655.53 0.00 65.6 23.0 --
05/24/2020 16:00 655.52 0.00 65.2 26.0 --
05/24/2020 15:00 655.53 0.00 63.7 29.0 --
05/24/2020 14:00 655.53 0.00 61.6 33.0 --
05/24/2020 13:00 655.53 0.00 60.6 35.0 --
05/24/2020 12:00 655.53 0.00 57.7 39.0 --
05/24/2020 11:00 655.52 0.00 53.6 45.0 --
05/24/2020 10:00 655.53 0.00 50.9 54.0 --
05/24/2020 09:00 655.53 0.00 47.1 64.0 --
05/24/2020 08:00 655.52 0.00 41.0 97.0 --
05/24/2020 07:00 655.53 0.00 38.1 100.0 --
05/24/2020 06:00 655.55 0.00 38.0 100.0 --
05/24/2020 05:00 655.53 0.00 38.2 100.0 --
05/24/2020 04:00 655.52 0.00 39.2 95.0 --
05/24/2020 03:00 655.54 0.00 39.6 91.0 --
05/24/2020 02:00 655.53 0.00 41.1 85.0 --
05/24/2020 01:00 655.52 0.00 42.3 77.0 --
05/24/2020 00:00 655.53 0.00 44.9 68.0 --
05/23/2020 23:00 655.53 0.00 47.1 61.0 --
05/23/2020 22:00 655.53 0.00 49.9 52.0 --
05/23/2020 21:00 655.53 0.00 53.5 44.0 --
05/23/2020 20:00 655.54 0.00 58.0 36.0 --
05/23/2020 19:00 655.52 0.00 62.3 38.0 --
05/23/2020 18:00 655.53 0.00 64.2 34.0 --
05/23/2020 17:00 655.55 0.00 65.8 30.0 --
05/23/2020 16:00 655.54 0.00 66.8 26.0 --
05/23/2020 15:00 655.54 0.00 67.9 23.0 --
05/23/2020 14:00 655.55 0.00 67.5 21.0 --
05/23/2020 13:00 655.54 0.00 68.6 24.0 --
05/23/2020 12:00 655.55 0.00 65.6 33.0 --
05/23/2020 11:00 655.54 0.00 62.6 64.0 --
05/23/2020 10:00 655.55 0.01 59.6 98.0 --
05/23/2020 09:00 655.55 0.01 59.4 100.0 --
05/23/2020 08:00 655.54 0.00 61.7 100.0 --
05/23/2020 07:00 655.54 0.00 61.4 96.0 --
05/23/2020 06:00 655.54 0.00 62.4 92.0 --
05/23/2020 05:00 655.55 0.00 61.8 96.0 --
05/23/2020 04:00 655.54 0.00 58.9 96.0 --
05/23/2020 03:00 655.54 0.00 58.0 90.0 --
05/23/2020 02:00 655.54 0.00 58.8 81.0 --
05/23/2020 01:00 655.54 0.00 60.0 76.0 --
05/23/2020 00:00 655.54 0.00 61.1 70.0 --
05/22/2020 23:00 655.53 0.00 62.0 70.0 --
05/22/2020 22:00 655.54 0.00 65.9 60.0 --
05/22/2020 21:00 655.53 0.00 72.0 41.0 --
05/22/2020 20:00 655.54 0.00 81.5 23.0 --
05/22/2020 19:00 655.53 0.00 82.9 17.0 --
05/22/2020 18:00 655.54 0.00 82.4 19.0 --
05/22/2020 17:00 655.54 0.00 81.4 25.0 --
05/22/2020 16:00 655.51 0.00 80.0 25.0 --
05/22/2020 15:00 655.54 0.00 77.9 24.0 --
05/22/2020 14:00 655.54 0.00 76.5 22.0 --
05/22/2020 13:00 655.53 0.00 74.9 33.0 --
05/22/2020 12:00 655.54 0.00 71.5 41.0 --
05/22/2020 11:00 655.55 0.00 68.8 47.0 --
05/22/2020 10:00 655.52 0.00 65.2 57.0 --
05/22/2020 09:00 655.54 0.00 61.6 60.0 --
05/22/2020 08:00 655.54 0.00 58.4 67.0 --
05/22/2020 07:00 655.53 0.00 55.5 70.0 --
05/22/2020 06:00 655.53 0.00 52.6 78.0 --
05/22/2020 05:00 655.54 0.00 55.3 70.0 --
05/22/2020 04:00 655.53 0.00 56.0 63.0 --
05/22/2020 03:00 655.52 0.00 58.4 57.0 --
05/22/2020 02:00 655.54 0.00 59.8 55.0 --
05/22/2020 01:00 655.53 0.00 61.4 49.0 --
05/22/2020 00:00 655.53 0.00 63.3 38.0 --
05/21/2020 23:00 655.52 0.00 63.6 37.0 --
05/21/2020 22:00 655.52 0.00 61.6 44.0 --
05/21/2020 21:00 655.52 0.00 73.6 21.0 --
05/21/2020 20:00 655.51 0.00 77.2 17.0 --
05/21/2020 19:00 655.50 0.00 77.5 16.0 --
05/21/2020 18:00 655.53 0.00 77.7 18.0 --
05/21/2020 17:00 655.53 0.00 76.9 12.0 --
05/21/2020 16:00 655.52 0.00 75.8 11.0 --
05/21/2020 15:00 655.51 0.00 75.4 13.0 --
05/21/2020 14:00 655.51 0.00 72.4 17.0 --
05/21/2020 13:00 655.49 0.00 69.3 22.0 --
05/21/2020 12:00 655.51 0.00 66.8 25.0 --
05/21/2020 11:00 655.50 0.00 63.0 35.0 --
05/21/2020 10:00 655.50 0.00 58.4 39.0 --
05/21/2020 09:00 655.50 0.00 52.9 48.0 --
05/21/2020 08:00 655.50 0.00 47.1 66.0 --
05/21/2020 07:00 655.50 0.00 43.6 80.0 --
05/21/2020 06:00 655.50 0.00 47.2 62.0 --
05/21/2020 05:00 655.50 0.00 47.0 72.0 --
05/21/2020 04:00 655.51 0.00 48.9 68.0 --
05/21/2020 03:00 655.50 0.00 47.4 72.0 --
05/21/2020 02:00 655.51 0.00 46.8 77.0 --
05/21/2020 01:00 655.50 0.00 47.8 73.0 --
05/21/2020 00:00 655.51 0.00 50.3 63.0 --
05/20/2020 23:00 655.51 0.00 55.2 48.0 --
05/20/2020 22:00 655.51 0.00 58.2 36.0 --
05/20/2020 21:00 655.51 0.00 61.8 31.0 --
05/20/2020 20:00 655.52 0.00 66.2 28.0 --
05/20/2020 19:00 655.52 0.00 68.1 25.0 --
05/20/2020 18:00 655.52 0.00 68.5 25.0 --
05/20/2020 17:00 655.51 0.00 67.1 25.0 --
05/20/2020 16:00 655.52 0.00 66.8 27.0 --
05/20/2020 15:00 655.53 0.00 65.0 28.0 --
05/20/2020 14:00 655.52 0.00 64.3 30.0 --
05/20/2020 13:00 655.53 0.00 62.8 33.0 --
05/20/2020 12:00 655.53 0.00 60.4 35.0 --
05/20/2020 11:00 655.52 0.00 57.1 41.0 --
05/20/2020 10:00 655.53 0.00 54.6 51.0 --
05/20/2020 09:00 655.53 0.00 46.0 86.0 --
05/20/2020 08:00 655.53 0.00 40.0 100.0 --
05/20/2020 07:00 655.52 0.00 39.1 100.0 --
05/20/2020 06:00 655.52 0.00 39.6 100.0 --
05/20/2020 05:00 655.53 0.00 41.4 94.0 --
05/20/2020 04:00 655.53 0.00 43.2 91.0 --
05/20/2020 03:00 655.53 0.00 44.5 86.0 --
05/20/2020 02:00 655.53 0.00 44.1 85.0 --
05/20/2020 01:00 655.53 0.00 46.6 75.0 --
05/20/2020 00:00 655.54 0.00 46.7 74.0 --
05/19/2020 23:00 655.53 0.00 50.7 62.0 --
05/19/2020 22:00 655.53 0.00 54.2 53.0 --
05/19/2020 21:00 655.53 0.00 55.7 51.0 --
05/19/2020 20:00 655.54 0.00 60.4 36.0 --
05/19/2020 19:00 655.52 0.00 61.1 33.0 --
05/19/2020 18:00 655.52 0.00 62.2 33.0 --
05/19/2020 17:00 655.52 0.00 61.6 33.0 --
05/19/2020 16:00 655.52 0.00 61.7 33.0 --
05/19/2020 15:00 655.54 0.00 60.7 33.0 --
05/19/2020 14:00 655.51 0.00 61.0 36.0 --
05/19/2020 13:00 655.53 0.00 60.0 38.0 --
05/19/2020 12:00 655.55 0.01 60.0 43.0 --
05/19/2020 11:00 655.52 0.00 59.2 41.0 --
05/19/2020 10:00 655.53 0.00 54.7 46.0 --
05/19/2020 09:00 655.54 0.00 50.0 60.0 --
05/19/2020 08:00 655.53 0.00 41.7 91.0 --
05/19/2020 07:00 655.53 0.00 38.1 100.0 --
05/19/2020 06:00 655.53 0.00 38.7 100.0 --
05/19/2020 05:00 655.53 0.00 39.5 95.0 --
05/19/2020 04:00 655.53 0.00 40.4 89.0 --
05/19/2020 03:00 655.53 0.00 41.6 84.0 --
05/19/2020 02:00 655.52 0.00 43.6 82.0 --
05/19/2020 01:00 655.52 0.00 45.4 73.0 --
05/19/2020 00:00 655.53 0.00 47.4 71.0 --
05/18/2020 23:00 655.52 0.00 50.0 70.0 --
05/18/2020 22:00 655.52 0.00 53.0 67.0 --
05/18/2020 21:00 655.52 0.00 58.2 56.3 --
05/18/2020 20:00 655.51 0.00 63.4 45.7 --
05/18/2020 19:00 655.51 0.00 68.6 35.0 --
05/18/2020 18:00 655.51 0.00 67.0 34.0 --
05/18/2020 17:00 655.51 0.00 66.3 37.0 --
05/18/2020 16:00 655.51 0.00 65.3 38.0 --
05/18/2020 15:00 655.51 0.00 64.1 44.0 --
05/18/2020 14:00 655.50 0.00 60.1 52.0 --
05/18/2020 13:00 655.50 0.00 58.3 76.0 --
05/18/2020 12:00 655.49 0.00 57.7 98.0 --
05/18/2020 11:00 655.48 0.00 56.0 95.0 --
05/18/2020 10:00 655.47 0.00 54.5 100.0 --
05/18/2020 09:00 655.47 0.01 54.1 100.0 --
05/18/2020 08:00 655.46 0.01 53.9 100.0 --
05/18/2020 07:00 655.46 0.01 53.6 100.0 --
05/18/2020 06:00 655.45 0.00 53.4 100.0 --
05/18/2020 05:00 655.44 0.00 54.2 100.0 --
05/18/2020 04:00 655.44 0.00 54.3 96.0 --
05/18/2020 03:00 655.44 0.00 54.8 94.0 --
05/18/2020 02:00 655.43 0.00 55.3 93.0 --
05/18/2020 01:00 655.42 0.00 55.8 90.0 --
05/18/2020 00:00 655.41 0.00 56.3 87.0 --
05/17/2020 23:00 655.41 0.00 57.3 81.0 --
05/17/2020 22:00 655.41 0.00 59.0 77.0 --
05/17/2020 21:00 655.39 0.00 60.8 70.0 --
05/17/2020 20:00 655.39 0.00 64.0 56.0 --
05/17/2020 19:00 655.38 0.00 64.4 56.0 --
05/17/2020 18:00 655.38 0.00 64.0 55.0 --
05/17/2020 17:00 655.37 0.00 63.5 56.0 --
05/17/2020 16:00 655.35 0.00 62.7 59.0 --
05/17/2020 15:00 655.34 0.00 62.2 59.0 --
05/17/2020 14:00 655.33 0.00 61.4 59.0 --
05/17/2020 13:00 655.33 0.00 60.3 62.0 --
05/17/2020 12:00 655.33 0.00 58.8 64.0 --
05/17/2020 11:00 655.32 0.00 56.8 67.0 --
05/17/2020 10:00 655.32 0.00 55.2 64.0 --
05/17/2020 09:00 655.30 0.00 53.4 68.0 --
05/17/2020 08:00 655.29 0.00 50.6 80.0 --
05/17/2020 07:00 655.29 0.00 50.1 86.0 --
05/17/2020 06:00 655.28 0.00 49.3 84.0 --
05/17/2020 05:00 655.27 0.00 49.2 88.0 --
05/17/2020 04:00 655.26 0.00 49.5 89.0 --
05/17/2020 03:00 655.25 0.00 48.6 91.0 --
05/17/2020 02:00 655.23 0.00 50.9 85.0 --
05/17/2020 01:00 655.23 0.00 48.6 100.0 --
05/17/2020 00:00 655.21 0.00 47.9 99.0 --
05/16/2020 23:00 655.21 0.00 48.6 92.0 --
05/16/2020 22:00 655.19 0.00 51.5 82.0 --
05/16/2020 21:00 655.18 0.00 56.9 65.0 --
05/16/2020 20:00 655.17 0.00 61.3 53.0 --
05/16/2020 19:00 655.16 0.00 61.6 53.0 --
05/16/2020 18:00 655.14 0.00 62.3 52.0 --
05/16/2020 17:00 655.14 0.00 61.4 52.0 --
05/16/2020 16:00 655.13 0.00 60.0 56.0 --
05/16/2020 15:00 655.11 0.00 59.2 61.0 --
05/16/2020 14:00 655.10 0.00 57.4 65.0 --
05/16/2020 13:00 655.08 0.00 57.3 65.0 --
05/16/2020 12:00 655.08 0.00 57.0 66.0 --
05/16/2020 11:00 655.05 0.00 57.7 62.0 --
05/16/2020 10:00 655.03 0.00 57.0 68.0 --
05/16/2020 09:00 655.03 0.00 56.3 75.0 --
05/16/2020 08:00 655.01 0.00 54.6 80.0 --
05/16/2020 07:00 655.01 0.00 51.3 100.0 --
05/16/2020 06:00 654.99 0.00 55.2 87.0 --
05/16/2020 05:00 654.98 0.00 56.7 91.0 --
05/16/2020 04:00 654.96 0.00 59.6 99.0 --
05/16/2020 03:00 654.94 0.03 61.1 100.0 --
05/16/2020 02:00 654.92 0.00 61.2 100.0 --
05/16/2020 01:00 654.91 0.00 60.8 100.0 --
05/16/2020 00:00 654.88 0.00 60.2 100.0 --
05/15/2020 23:00 654.89 0.25 60.9 100.0 --
05/15/2020 22:00 654.84 0.39 61.1 100.0 --
05/15/2020 21:00 654.78 0.00 69.5 66.0 --
05/15/2020 20:00 654.78 0.00 74.1 56.0 --
05/15/2020 19:00 654.78 0.00 76.5 51.0 --
05/15/2020 18:00 654.77 0.00 74.5 52.0 --
05/15/2020 17:00 654.76 0.00 72.9 55.0 --
05/15/2020 16:00 654.75 0.00 71.3 56.0 --
05/15/2020 15:00 654.74 0.00 70.0 57.0 --
05/15/2020 14:00 654.74 0.00 69.4 57.0 --
05/15/2020 13:00 654.73 0.00 66.9 61.0 --
05/15/2020 12:00 654.73 0.00 65.5 63.0 --
05/15/2020 11:00 654.70 0.00 61.6 68.0 --
05/15/2020 10:00 654.71 0.00 56.0 79.0 --
05/15/2020 09:00 654.72 0.00 54.6 82.0 --
05/15/2020 08:00 654.72 0.00 54.2 82.0 --
05/15/2020 07:00 654.72 0.00 53.1 81.0 --
05/15/2020 06:00 654.72 0.00 53.2 82.0 --
05/15/2020 05:00 654.72 0.00 53.4 79.0 --
05/15/2020 04:00 654.72 0.00 54.8 68.0 --
05/15/2020 03:00 654.72 0.00 57.3 53.0 --
05/15/2020 02:00 654.71 0.00 52.7 53.0 --
05/15/2020 01:00 654.70 0.00 52.9 56.0 --
05/15/2020 00:00 654.71 0.00 54.1 48.0 --
05/14/2020 23:00 654.72 0.00 55.2 41.0 --
05/14/2020 22:00 654.71 0.00 55.4 38.0 --
05/14/2020 21:00 654.72 0.00 62.1 23.0 --
05/14/2020 20:00 654.71 0.00 66.0 13.0 --
05/14/2020 19:00 654.70 0.00 67.5 10.0 --
05/14/2020 18:00 654.73 0.00 66.9 10.0 --
05/14/2020 17:00 654.74 0.00 65.6 15.0 --
05/14/2020 16:00 654.71 0.00 63.5 16.0 --
05/14/2020 15:00 654.71 0.00 61.8 18.0 --
05/14/2020 14:00 654.68 0.00 60.1 17.0 --
05/14/2020 13:00 654.72 0.00 58.1 20.0 --
05/14/2020 12:00 654.70 0.00 56.5 23.0 --
05/14/2020 11:00 654.71 0.00 54.4 26.0 --
05/14/2020 10:00 654.70 0.00 51.1 35.0 --
05/14/2020 09:00 654.71 0.00 46.0 45.0 --
05/14/2020 08:00 654.70 0.00 36.8 77.0 --
05/14/2020 07:00 654.71 0.00 35.4 84.0 --
05/14/2020 06:00 654.69 0.00 34.5 80.0 --
05/14/2020 05:00 654.70 0.00 35.7 75.0 --
05/14/2020 04:00 654.69 0.00 35.1 78.0 --
05/14/2020 03:00 654.69 0.00 35.5 74.0 --
05/14/2020 02:00 654.68 0.00 35.4 73.0 --
05/14/2020 01:00 654.69 0.00 38.6 66.0 --
05/14/2020 00:00 654.68 0.00 39.6 65.0 --
05/13/2020 23:00 654.68 0.00 41.0 55.0 --
05/13/2020 22:00 654.68 0.00 44.6 43.0 --
05/13/2020 21:00 654.69 0.00 52.4 25.0 --
05/13/2020 20:00 654.69 0.00 54.3 22.0 --
05/13/2020 19:00 654.69 0.00 54.6 23.0 --
05/13/2020 18:00 654.65 0.00 54.0 21.0 --
05/13/2020 17:00 654.67 0.00 54.0 21.0 --
05/13/2020 16:00 654.65 0.00 52.1 23.0 --
05/13/2020 15:00 654.66 0.00 50.3 26.0 --
05/13/2020 14:00 654.69 0.00 49.0 26.0 --
05/13/2020 13:00 654.67 0.00 47.4 27.0 --
05/13/2020 12:00 654.66 0.00 45.8 33.0 --
05/13/2020 11:00 654.65 0.00 43.8 33.0 --
05/13/2020 10:00 654.63 0.00 42.0 41.0 --
05/13/2020 09:00 654.66 0.00 38.5 54.0 --
05/13/2020 08:00 654.64 0.00 35.7 65.0 --
05/13/2020 07:00 654.63 0.00 34.5 71.0 --
05/13/2020 06:00 654.63 0.00 34.6 71.0 --
05/13/2020 05:00 654.62 0.00 35.3 68.0 --
05/13/2020 04:00 654.63 0.00 35.8 73.0 --
05/13/2020 03:00 654.62 0.00 35.3 78.0 --
05/13/2020 02:00 654.61 0.00 35.0 87.0 --
05/13/2020 01:00 654.60 0.00 38.0 62.0 --
05/13/2020 00:00 654.60 0.00 38.6 54.0 --
05/12/2020 23:00 654.60 0.00 40.7 47.0 --
05/12/2020 22:00 654.58 0.00 43.7 36.0 --
05/12/2020 21:00 654.57 0.00 44.6 37.0 --
05/12/2020 20:00 654.55 0.00 46.7 29.0 --
05/12/2020 19:00 654.54 0.00 48.9 24.0 --
05/12/2020 18:00 654.55 0.00 48.8 27.0 --
05/12/2020 17:00 -- -- -- -- --
05/12/2020 16:00 -- -- -- -- --